Huvudsida
METAR-TAF:

METAR-TAF

Flygplatser :

Höga Kusten Airport

Kramfors, Sverige

latitud: 63-03N, longitud: 017-46E, höjd: 10 m

Aktuellt väderrapport

Denna rapport gjordes för 17 timmar och 4 minuter sedan, klockan 16:50 UTC
Vind 4 kt från nordväst
Temperatur -18°C
Fuktighet 84%
Tryck 1035 hPa
Sikt 10 km eller mer
Inga moln under 1 500 m eller inga cumulonimbus

METAR: ESNK 141650Z 32004KT CAVOK M18/M20 Q1035

Tid: 10:54 (09:54 UTC)

Väderprognos

Denna rapport gjordes för 16 timmar och 24 minuter sedan, klockan 17:30 UTC
Prognos gäller från 14 kl. 18 UTC till 14 kl. 20 UTC
Vind 4 kt från nordväst
Sikt 10 km eller mer
Inga moln under 1 500 m eller inga cumulonimbus

TAF: ESNK 141730Z 1418/1420 32004KT CAVOK

Aktuella väderrapporter och prognoser från 4000 flygplatser (METAR- och TAF-rapporter).

De tillgängliga stationerna syns som gula och röda prickar på kartan.

För musen över prickarna för att se namnen på stationerna.

Klicka sedan för att få väderrapporter och prognoser.

För att ändra kartan: Klicka på de gröna knapparna med ett svart kors på för att zooma in; den gröna knappen med ett streck på för att zooma ut; eller på de gröna pilarna för angränsande kartor.


METAR-TAF: